createdAt,value
2024-01-15T00:00:23.567Z,99555.50
2024-01-15T00:02:50.456Z,99547.75
2024-01-15T00:05:17.308Z,99552.06
2024-01-15T00:07:44.214Z,99552.69
2024-01-15T00:10:11.269Z,99541.44
2024-01-15T00:12:38.216Z,99543.94
2024-01-15T00:15:06.096Z,99547.97
2024-01-15T00:17:33.255Z,99539.13
2024-01-15T00:20:00.165Z,99539.88
2024-01-15T00:22:28.330Z,99534.72
2024-01-15T00:24:55.326Z,99538.56
2024-01-15T00:27:22.377Z,99534.97
2024-01-15T00:29:49.341Z,99536.97
2024-01-15T00:32:16.072Z,99521.66
2024-01-15T00:34:43.970Z,99531.88
2024-01-15T00:37:10.798Z,99528.06
2024-01-15T00:39:37.898Z,99511.13
2024-01-15T00:42:05.107Z,99514.50
2024-01-15T00:44:32.020Z,99521.91
2024-01-15T00:46:59.520Z,99514.47
2024-01-15T00:49:28.316Z,99514.94
2024-01-15T00:51:55.371Z,99505.19
2024-01-15T00:54:22.377Z,99495.84
2024-01-15T00:56:49.305Z,99499.28
2024-01-15T00:59:16.352Z,99505.72
2024-01-15T01:01:45.078Z,99501.84
2024-01-15T01:04:12.160Z,99502.25
2024-01-15T01:06:39.788Z,99497.28
2024-01-15T01:09:06.837Z,99497.50
2024-01-15T01:11:33.825Z,99501.66
2024-01-15T01:14:01.831Z,99498.28
2024-01-15T01:16:29.246Z,99497.88
2024-01-15T01:18:56.219Z,99489.50
2024-01-15T01:21:23.298Z,99490.44
2024-01-15T01:23:50.603Z,99486.13
2024-01-15T01:26:18.551Z,99494.06
2024-01-15T01:28:45.651Z,99498.41
2024-01-15T01:31:12.552Z,99495.66
2024-01-15T01:33:41.596Z,99504.31
2024-01-15T01:36:10.509Z,99505.31
2024-01-15T01:38:38.230Z,99497.88
2024-01-15T01:41:05.363Z,99501.03
2024-01-15T01:43:32.273Z,99493.63
2024-01-15T01:46:01.098Z,99502.06
2024-01-15T01:48:28.919Z,99497.72
2024-01-15T01:50:59.173Z,99496.63
2024-01-15T01:53:30.563Z,99487.75
2024-01-15T01:55:58.624Z,99492.94
2024-01-15T01:58:26.822Z,99478.81
2024-01-15T02:00:55.199Z,99489.78
2024-01-15T02:03:22.517Z,99486.41
2024-01-15T02:05:50.756Z,99486.59
2024-01-15T02:08:18.116Z,99487.97
2024-01-15T02:10:44.968Z,99473.88
2024-01-15T02:13:12.123Z,99483.69
2024-01-15T02:15:39.171Z,99482.66
2024-01-15T02:18:08.948Z,99491.69
2024-01-15T02:20:36.831Z,99480.03
2024-01-15T02:23:10.578Z,99475.88
2024-01-15T02:25:42.838Z,99483.00
2024-01-15T02:28:11.437Z,99470.69
2024-01-15T02:30:42.180Z,99458.34
2024-01-15T02:33:11.022Z,99456.66
2024-01-15T02:35:38.147Z,99448.53
2024-01-15T02:38:06.311Z,99451.59
2024-01-15T02:40:33.728Z,99448.13
2024-01-15T02:43:00.660Z,99436.50
2024-01-15T02:45:28.220Z,99437.63
2024-01-15T02:47:55.066Z,99465.28
2024-01-15T02:50:22.126Z,99487.53
2024-01-15T02:52:48.969Z,99487.13
2024-01-15T02:55:16.353Z,99484.69
2024-01-15T02:57:43.323Z,99471.88
2024-01-15T03:00:10.921Z,99467.50
2024-01-15T03:02:48.384Z,99464.25
2024-01-15T03:05:16.395Z,99469.88
2024-01-15T03:07:43.893Z,99463.25
2024-01-15T03:10:10.894Z,99462.78
2024-01-15T03:12:37.852Z,99471.69
2024-01-15T03:15:05.494Z,99467.72
2024-01-15T03:17:32.725Z,99461.69
2024-01-15T03:19:59.872Z,99472.47
2024-01-15T03:22:26.695Z,99468.72
2024-01-15T03:24:54.062Z,99457.38
2024-01-15T03:27:20.934Z,99462.44
2024-01-15T03:29:47.976Z,99454.31
2024-01-15T03:32:17.127Z,99457.84
2024-01-15T03:34:44.079Z,99467.81
2024-01-15T03:37:10.892Z,99464.59
2024-01-15T03:39:38.016Z,99459.09
2024-01-15T03:42:05.772Z,99459.13
2024-01-15T03:44:32.624Z,99460.72
2024-01-15T03:46:59.714Z,99456.91
2024-01-15T03:49:26.756Z,99442.19
2024-01-15T03:51:53.853Z,99452.81
2024-01-15T03:54:21.309Z,99458.47
2024-01-15T03:56:48.345Z,99460.94
2024-01-15T03:59:15.258Z,99451.59
2024-01-15T04:01:42.890Z,99454.38
2024-01-15T04:04:09.860Z,99442.09
2024-01-15T04:06:37.099Z,99439.66
2024-01-15T04:09:04.030Z,99434.47
2024-01-15T04:11:30.893Z,99422.13
2024-01-15T04:13:58.080Z,99418.75
2024-01-15T04:16:24.835Z,99430.47
2024-01-15T04:18:51.798Z,99411.75
2024-01-15T04:21:19.590Z,99427.97
2024-01-15T04:23:46.501Z,99412.72
2024-01-15T04:26:13.467Z,99414.59
2024-01-15T04:28:40.289Z,99413.66
2024-01-15T04:31:07.397Z,99403.31
2024-01-15T04:33:34.415Z,99405.34
2024-01-15T04:36:06.492Z,99407.63
2024-01-15T04:38:34.166Z,99389.41
2024-01-15T04:41:01.331Z,99396.72
2024-01-15T04:43:28.254Z,99385.13
2024-01-15T04:45:55.143Z,99392.53
2024-01-15T04:48:23.979Z,99398.03
2024-01-15T04:50:51.488Z,99386.03
2024-01-15T04:53:18.280Z,99395.75
2024-01-15T04:55:45.195Z,99396.44
2024-01-15T04:58:12.063Z,99396.00
2024-01-15T05:00:39.149Z,99387.41
2024-01-15T05:03:07.135Z,99389.81
2024-01-15T05:05:33.997Z,99391.69
2024-01-15T05:08:00.890Z,99392.97
2024-01-15T05:10:28.287Z,99393.75
2024-01-15T05:12:55.197Z,99389.50
2024-01-15T05:15:21.968Z,99381.09
2024-01-15T05:17:48.820Z,99357.13
2024-01-15T05:20:15.923Z,99371.91
2024-01-15T05:22:42.761Z,99357.31
2024-01-15T05:25:09.616Z,99358.97
2024-01-15T05:27:36.547Z,99359.75
2024-01-15T05:30:04.000Z,99358.75
2024-01-15T05:32:31.387Z,99363.47
2024-01-15T05:34:58.206Z,99351.81
2024-01-15T05:37:25.006Z,99351.25
2024-01-15T05:39:51.938Z,99357.09
2024-01-15T05:42:18.821Z,99353.28
2024-01-15T05:44:45.593Z,99352.47
2024-01-15T05:47:12.390Z,99352.06
2024-01-15T05:49:39.829Z,99355.53
2024-01-15T05:52:07.146Z,99352.47
2024-01-15T05:54:34.008Z,99355.72
2024-01-15T05:57:00.992Z,99354.28
2024-01-15T05:59:28.121Z,99362.22
2024-01-15T06:01:55.016Z,99360.25
2024-01-15T06:04:22.040Z,99362.25
2024-01-15T06:06:49.100Z,99354.13
2024-01-15T06:09:16.149Z,99355.75
2024-01-15T06:11:43.263Z,99361.66
2024-01-15T06:14:10.298Z,99354.72
2024-01-15T06:16:37.066Z,99355.75
2024-01-15T06:19:04.279Z,99359.00
2024-01-15T06:21:31.364Z,99359.59
2024-01-15T06:23:58.284Z,99352.06
2024-01-15T06:26:25.197Z,99346.38
2024-01-15T06:28:52.152Z,99356.56
2024-01-15T06:31:19.139Z,99357.78
2024-01-15T06:33:48.609Z,99355.34
2024-01-15T06:36:17.465Z,99354.31
2024-01-15T06:38:45.205Z,99358.59
2024-01-15T06:41:12.031Z,99362.88
2024-01-15T06:43:39.008Z,99360.00
2024-01-15T06:46:07.936Z,99357.78
2024-01-15T06:48:35.970Z,99365.53
2024-01-15T06:51:03.340Z,99352.06
2024-01-15T06:53:30.187Z,99362.66
2024-01-15T06:55:57.011Z,99360.22
2024-01-15T06:58:23.976Z,99365.09
2024-01-15T07:00:51.192Z,99356.97
2024-01-15T07:03:18.137Z,99353.13
2024-01-15T07:05:45.214Z,99352.31
2024-01-15T07:08:12.012Z,99341.50
2024-01-15T07:10:38.746Z,99343.72
2024-01-15T07:13:06.718Z,99348.63
2024-01-15T07:15:33.886Z,99354.13
2024-01-15T07:18:00.753Z,99343.75
2024-01-15T07:20:28.162Z,99348.22
2024-01-15T07:22:55.130Z,99344.94
2024-01-15T07:25:21.999Z,99347.81
2024-01-15T07:27:49.527Z,99349.22
2024-01-15T07:30:16.759Z,99361.25
2024-01-15T07:32:43.847Z,99349.63
2024-01-15T07:35:11.499Z,99351.66
2024-01-15T07:37:38.459Z,99353.06
2024-01-15T07:40:06.966Z,99336.63
2024-01-15T07:42:34.049Z,99341.91
2024-01-15T07:45:01.787Z,99346.19
2024-01-15T07:47:32.136Z,99347.19
2024-01-15T07:50:03.111Z,99348.22
2024-01-15T07:52:32.633Z,99337.41
2024-01-15T07:55:04.682Z,99338.84
2024-01-15T07:57:32.159Z,99334.56
2024-01-15T07:59:59.209Z,99340.63
2024-01-15T08:02:25.988Z,99329.28
2024-01-15T08:04:52.948Z,99338.41
2024-01-15T08:07:19.840Z,99339.81
2024-01-15T08:09:49.118Z,99332.31
2024-01-15T08:12:16.297Z,99334.13
2024-01-15T08:14:43.187Z,99328.59
2024-01-15T08:17:10.049Z,99336.97
2024-01-15T08:19:37.768Z,99339.59
2024-01-15T08:22:04.683Z,99328.81
2024-01-15T08:24:32.691Z,99324.50
2024-01-15T08:26:59.886Z,99323.47
2024-01-15T08:29:27.084Z,99329.38
2024-01-15T08:31:54.090Z,99320.81
2024-01-15T08:34:21.122Z,99323.75
2024-01-15T08:36:48.120Z,99318.78
2024-01-15T08:39:15.244Z,99321.91
2024-01-15T08:41:42.147Z,99322.06
2024-01-15T08:44:09.030Z,99332.09
2024-01-15T08:46:35.942Z,99322.91
2024-01-15T08:49:04.610Z,99322.97
2024-01-15T08:51:31.668Z,99330.06
2024-01-15T08:53:59.288Z,99337.78
2024-01-15T08:56:26.189Z,99324.94
2024-01-15T08:58:52.970Z,99332.47
2024-01-15T09:01:20.257Z,99334.94
2024-01-15T09:03:47.800Z,99334.13
2024-01-15T09:06:14.911Z,99333.94
2024-01-15T09:08:45.673Z,99335.34
2024-01-15T09:11:13.368Z,99331.28
2024-01-15T09:13:40.939Z,99329.25
2024-01-15T09:16:08.438Z,99313.22
2024-01-15T09:18:36.406Z,99316.81
2024-01-15T09:21:04.633Z,99313.59
2024-01-15T09:23:31.371Z,99304.44
2024-01-15T09:25:58.186Z,99313.44
2024-01-15T09:28:25.003Z,99317.47
2024-01-15T09:30:51.958Z,99313.59
2024-01-15T09:33:18.989Z,99312.50
2024-01-15T09:35:46.368Z,99310.09
2024-01-15T09:38:13.343Z,99310.06
2024-01-15T09:40:46.448Z,99309.69
2024-01-15T09:43:15.156Z,99300.50
2024-01-15T09:45:42.595Z,99294.22
2024-01-15T09:48:09.620Z,99289.53
2024-01-15T09:50:36.688Z,99294.16
2024-01-15T09:53:05.625Z,99298.59
2024-01-15T09:55:33.976Z,99296.84
2024-01-15T09:58:03.060Z,99299.84
2024-01-15T10:00:31.005Z,99281.81
2024-01-15T10:02:58.053Z,99284.28
2024-01-15T10:05:25.176Z,99285.06
2024-01-15T10:07:54.414Z,99274.59
2024-01-15T10:10:23.017Z,99277.72
2024-01-15T10:12:51.081Z,99283.41
2024-01-15T10:15:19.180Z,99281.13
2024-01-15T10:17:46.296Z,99299.88
2024-01-15T10:20:13.629Z,99309.50
2024-01-15T10:22:44.459Z,99300.75
2024-01-15T10:25:12.743Z,99296.91
2024-01-15T10:27:41.474Z,99298.72
2024-01-15T10:30:10.311Z,99295.91
2024-01-15T10:32:37.778Z,99290.19
2024-01-15T10:35:05.482Z,99299.88
2024-01-15T10:37:34.551Z,99293.16
2024-01-15T10:40:06.416Z,99280.16
2024-01-15T10:42:33.626Z,99274.03
2024-01-15T10:45:00.629Z,99276.94
2024-01-15T10:47:27.866Z,99264.25
2024-01-15T10:49:54.863Z,99265.31
2024-01-15T10:52:26.110Z,99268.78
2024-01-15T10:54:54.461Z,99267.50
2024-01-15T10:57:23.585Z,99255.16
2024-01-15T10:59:50.589Z,99262.47
2024-01-15T11:02:17.904Z,99267.75
2024-01-15T11:04:44.928Z,99260.75
2024-01-15T11:07:13.327Z,99253.78
2024-01-15T11:09:40.454Z,99242.41
2024-01-15T11:12:10.511Z,99245.09
2024-01-15T11:14:49.373Z,99241.41
2024-01-15T11:17:18.508Z,99244.22
2024-01-15T11:19:53.771Z,99261.34
2024-01-15T11:22:30.396Z,99259.34
2024-01-15T11:24:58.967Z,99261.06
2024-01-15T11:27:48.709Z,99266.38
2024-01-15T11:30:15.926Z,99260.41
2024-01-15T11:32:43.876Z,99270.19
2024-01-15T11:35:11.785Z,99251.56
2024-01-15T11:38:08.551Z,99256.88
2024-01-15T11:40:35.379Z,99257.06
2024-01-15T11:43:04.048Z,99269.09
2024-01-15T11:45:32.466Z,99251.88
2024-01-15T11:48:16.190Z,99253.44
2024-01-15T11:50:46.301Z,99258.31
2024-01-15T11:53:33.364Z,99264.88
2024-01-15T11:56:03.497Z,99257.72
2024-01-15T11:58:31.755Z,99246.88
2024-01-15T12:00:59.302Z,99250.38
2024-01-15T12:03:26.442Z,99259.13
2024-01-15T12:05:53.933Z,99257.34
2024-01-15T12:08:24.951Z,99263.44
2024-01-15T12:10:52.734Z,99252.41
2024-01-15T12:13:21.360Z,99255.28
2024-01-15T12:15:49.474Z,99250.16
2024-01-15T12:18:20.649Z,99258.53
2024-01-15T12:20:48.632Z,99253.72
2024-01-15T12:23:17.672Z,99263.38
2024-01-15T12:25:44.735Z,99264.47
2024-01-15T12:28:11.758Z,99260.19
2024-01-15T12:30:40.673Z,99256.00
2024-01-15T12:33:09.185Z,99253.56
2024-01-15T12:35:37.647Z,99247.53
2024-01-15T12:38:05.145Z,99244.50
2024-01-15T12:40:33.834Z,99243.41
2024-01-15T12:43:01.976Z,99246.16
2024-01-15T12:45:29.198Z,99244.63
2024-01-15T12:47:56.588Z,99237.63
2024-01-15T12:50:26.791Z,99250.28
2024-01-15T12:52:53.666Z,99258.06
2024-01-15T12:55:20.994Z,99267.94
2024-01-15T12:57:48.079Z,99275.59
2024-01-15T13:00:16.305Z,99273.38
2024-01-15T13:02:44.871Z,99274.69
2024-01-15T13:05:14.523Z,99274.00
2024-01-15T13:07:45.033Z,99274.69
2024-01-15T13:10:15.842Z,99276.91
2024-01-15T13:12:43.157Z,99258.66
2024-01-15T13:15:15.075Z,99268.38
2024-01-15T13:17:47.309Z,99266.00
2024-01-15T13:20:14.851Z,99265.03
2024-01-15T13:22:45.335Z,99267.69
2024-01-15T13:25:12.788Z,99269.38
2024-01-15T13:27:40.495Z,99274.41
2024-01-15T13:30:09.894Z,99276.84
2024-01-15T13:32:37.360Z,99274.25
2024-01-15T13:35:06.882Z,99275.34
2024-01-15T13:37:34.223Z,99284.41
2024-01-15T13:40:01.340Z,99282.03
2024-01-15T13:42:30.210Z,99281.13
2024-01-15T13:44:57.095Z,99290.59
2024-01-15T13:47:25.376Z,99283.88
2024-01-15T13:49:52.296Z,99279.59
2024-01-15T13:52:22.006Z,99275.75
2024-01-15T13:54:51.386Z,99287.38
2024-01-15T13:57:21.577Z,99281.03
2024-01-15T13:59:50.537Z,99287.44
2024-01-15T14:02:20.649Z,99292.38
2024-01-15T14:04:50.417Z,99307.16
2024-01-15T14:07:18.312Z,99297.03
2024-01-15T14:09:45.538Z,99290.44
2024-01-15T14:12:13.165Z,99307.25
2024-01-15T14:14:41.247Z,99305.22
2024-01-15T14:17:10.846Z,99308.84
2024-01-15T14:19:38.116Z,99305.00
2024-01-15T14:22:05.210Z,99319.81
2024-01-15T14:24:32.128Z,99317.47
2024-01-15T14:26:59.655Z,99321.81
2024-01-15T14:29:27.566Z,99328.78
2024-01-15T14:31:54.921Z,99321.00
2024-01-15T14:34:25.019Z,99334.50
2024-01-15T14:36:55.335Z,99331.41
2024-01-15T14:39:25.723Z,99336.47
2024-01-15T14:41:53.562Z,99338.56
2024-01-15T14:44:20.488Z,99336.72
2024-01-15T14:46:47.549Z,99329.19
2024-01-15T14:49:15.771Z,99332.97
2024-01-15T14:51:43.686Z,99333.25
2024-01-15T14:54:11.801Z,99346.94
2024-01-15T14:56:39.602Z,99362.84
2024-01-15T14:59:06.442Z,99350.78
2024-01-15T15:01:33.640Z,99350.91
2024-01-15T15:04:01.096Z,99347.75
2024-01-15T15:06:29.033Z,99359.75
2024-01-15T15:08:59.825Z,99358.03
2024-01-15T15:11:29.883Z,99350.69
2024-01-15T15:13:56.735Z,99358.38
2024-01-15T15:16:23.789Z,99363.50
2024-01-15T15:18:56.259Z,99368.34
2024-01-15T15:21:32.034Z,99374.19
2024-01-15T15:23:58.986Z,99373.09
2024-01-15T15:26:25.961Z,99372.66
2024-01-15T15:28:53.120Z,99379.25
2024-01-15T15:31:26.216Z,99380.38
2024-01-15T15:33:54.252Z,99387.09
2024-01-15T15:36:21.377Z,99387.16
2024-01-15T15:38:49.734Z,99395.09
2024-01-15T15:41:16.733Z,99402.09
2024-01-15T15:43:43.681Z,99403.75
2024-01-15T15:46:10.822Z,99416.53
2024-01-15T15:48:37.864Z,99417.13
2024-01-15T15:51:05.006Z,99414.50
2024-01-15T15:53:32.006Z,99415.72
2024-01-15T15:55:59.655Z,99427.09
2024-01-15T15:58:27.397Z,99426.06
2024-01-15T16:00:54.641Z,99424.63
2024-01-15T16:03:21.791Z,99432.25
2024-01-15T16:05:52.571Z,99432.81
2024-01-15T16:08:21.496Z,99448.72
2024-01-15T16:10:53.201Z,99444.00
2024-01-15T16:13:20.762Z,99443.03
2024-01-15T16:15:48.289Z,99453.59
2024-01-15T16:23:19.812Z,99453.06
2024-01-15T16:23:34.625Z,99456.47
2024-01-15T16:24:11.505Z,99469.50
2024-01-15T16:26:38.797Z,99470.88
2024-01-15T16:29:06.570Z,99474.84
2024-01-15T16:31:33.414Z,99481.16
2024-01-15T16:34:05.113Z,99484.81
2024-01-15T16:36:34.409Z,99480.59
2024-01-15T16:39:01.999Z,99480.06
2024-01-15T16:41:29.530Z,99493.25
2024-01-15T16:43:56.670Z,99488.38
2024-01-15T16:46:23.621Z,99497.13
2024-01-15T16:48:51.152Z,99498.56
2024-01-15T16:51:18.544Z,99492.69
2024-01-15T16:53:46.531Z,99503.28
2024-01-15T16:56:13.763Z,99514.94
2024-01-15T16:58:40.870Z,99510.44
2024-01-15T17:01:09.412Z,99519.38
2024-01-15T17:03:36.458Z,99521.03
2024-01-15T17:06:03.941Z,99525.09
2024-01-15T17:08:31.579Z,99520.22
2024-01-15T17:11:00.665Z,99518.56
2024-01-15T17:13:29.079Z,99524.72
2024-01-15T17:15:56.149Z,99523.03
2024-01-15T17:18:23.421Z,99525.91
2024-01-15T17:20:50.407Z,99530.00
2024-01-15T17:23:17.303Z,99526.31
2024-01-15T17:25:44.104Z,99536.72
2024-01-15T17:28:11.017Z,99540.59
2024-01-15T17:30:37.943Z,99550.97
2024-01-15T17:33:05.528Z,99557.91
2024-01-15T17:35:32.575Z,99557.72
2024-01-15T17:37:59.509Z,99560.13
2024-01-15T17:40:27.073Z,99564.03
2024-01-15T17:42:53.835Z,99556.91
2024-01-15T17:45:20.861Z,99571.97
2024-01-15T17:47:50.340Z,99571.75
2024-01-15T17:50:19.870Z,99572.56
2024-01-15T17:52:46.752Z,99572.38
2024-01-15T17:55:13.827Z,99571.13
2024-01-15T17:57:41.779Z,99565.66
2024-01-15T18:00:08.896Z,99571.34
2024-01-15T18:02:36.085Z,99578.69
2024-01-15T18:05:04.273Z,99570.56
2024-01-15T18:07:31.304Z,99584.41
2024-01-15T18:09:59.122Z,99583.78
2024-01-15T18:12:27.015Z,99583.81
2024-01-15T18:14:54.752Z,99594.81
2024-01-15T18:17:25.306Z,99595.63
2024-01-15T18:19:52.266Z,99607.84
2024-01-15T18:22:19.619Z,99608.66
2024-01-15T18:24:48.639Z,99615.38
2024-01-15T18:27:22.428Z,99615.78
2024-01-15T18:29:59.698Z,99616.81
2024-01-15T18:32:52.185Z,99592.94
2024-01-15T18:35:23.280Z,99600.09
2024-01-15T18:38:01.404Z,99623.91
2024-01-15T18:40:40.529Z,99620.88
2024-01-15T18:43:10.241Z,99603.72
2024-01-15T18:45:39.244Z,99625.78
2024-01-15T18:48:08.325Z,99622.91
2024-01-15T18:50:35.487Z,99626.19
2024-01-15T18:53:04.175Z,99624.53
2024-01-15T18:55:31.630Z,99632.47
2024-01-15T18:58:00.696Z,99638.19
2024-01-15T19:00:30.454Z,99651.22
2024-01-15T19:02:59.292Z,99654.91
2024-01-15T19:05:26.721Z,99654.69
2024-01-15T19:07:57.126Z,99663.25
2024-01-15T19:10:24.144Z,99673.84
2024-01-15T19:12:51.127Z,99676.72
2024-01-15T19:15:20.302Z,99686.72
2024-01-15T19:17:50.074Z,99687.34
2024-01-15T19:20:18.303Z,99692.63
2024-01-15T19:22:45.207Z,99697.72
2024-01-15T19:25:13.913Z,99710.16
2024-01-15T19:27:45.675Z,99709.09
2024-01-15T19:30:15.324Z,99709.50
2024-01-15T19:32:42.203Z,99709.34
2024-01-15T19:35:11.881Z,99717.72
2024-01-15T19:37:39.045Z,99711.59
2024-01-15T19:40:07.759Z,99718.75
2024-01-15T19:42:34.645Z,99715.44
2024-01-15T19:45:01.595Z,99724.00
2024-01-15T19:47:31.417Z,99720.53
2024-01-15T19:49:59.189Z,99722.78
2024-01-15T19:52:26.244Z,99728.50
2024-01-15T19:54:53.298Z,99724.81
2024-01-15T19:57:20.343Z,99741.53
2024-01-15T19:59:49.324Z,99742.50
2024-01-15T20:02:16.427Z,99744.56
2024-01-15T20:04:43.915Z,99740.31
2024-01-15T20:07:11.303Z,99742.56
2024-01-15T20:09:42.374Z,99732.53
2024-01-15T20:12:14.098Z,99733.91
2024-01-15T20:14:41.252Z,99740.31
2024-01-15T20:17:08.388Z,99735.41
2024-01-15T20:19:36.119Z,99738.69
2024-01-15T20:22:12.071Z,99741.53
2024-01-15T20:24:39.003Z,99747.44
2024-01-15T20:27:07.072Z,99752.75
2024-01-15T20:29:35.598Z,99756.56
2024-01-15T20:32:03.347Z,99751.56
2024-01-15T20:34:30.552Z,99762.69
2024-01-15T20:36:57.384Z,99756.78
2024-01-15T20:39:24.146Z,99757.38
2024-01-15T20:41:59.314Z,99764.88
2024-01-15T20:44:35.077Z,99754.06
2024-01-15T20:47:04.648Z,99765.06
2024-01-15T20:49:31.588Z,99770.88
2024-01-15T20:52:05.485Z,99774.91
2024-01-15T20:54:34.547Z,99766.09
2024-01-15T20:57:04.150Z,99768.28
2024-01-15T20:59:39.721Z,99771.13
2024-01-15T21:02:18.959Z,99769.69
2024-01-15T21:04:45.927Z,99787.81
2024-01-15T21:07:21.939Z,99782.06
2024-01-15T21:10:18.798Z,99795.34
2024-01-15T21:13:17.524Z,99790.19
2024-01-15T21:15:54.194Z,99793.72
2024-01-15T21:18:25.319Z,99801.25
2024-01-15T21:20:53.073Z,99796.19
2024-01-15T21:23:29.527Z,99805.13
2024-01-15T21:25:58.662Z,99796.09
2024-01-15T21:28:25.975Z,99796.84
2024-01-15T21:30:53.727Z,99788.06
2024-01-15T21:33:20.839Z,99793.63
2024-01-15T21:35:48.649Z,99799.91
2024-01-15T21:38:17.798Z,99791.28
2024-01-15T21:40:49.138Z,99809.41
2024-01-15T21:43:16.177Z,99812.72
2024-01-15T21:45:47.941Z,99809.66
2024-01-15T21:48:17.496Z,99809.03
2024-01-15T21:50:48.213Z,99808.53
2024-01-15T21:53:17.738Z,99821.75
2024-01-15T21:55:45.321Z,99816.28
2024-01-15T21:58:15.077Z,99830.06
2024-01-15T22:00:56.390Z,99821.75
2024-01-15T22:03:23.772Z,99820.81
2024-01-15T22:05:52.360Z,99824.22
2024-01-15T22:08:20.377Z,99830.56
2024-01-15T22:10:47.348Z,99842.19
2024-01-15T22:13:14.211Z,99833.28
2024-01-15T22:15:46.178Z,99840.91
2024-01-15T22:18:13.862Z,99850.13
2024-01-15T22:20:41.148Z,99850.13
2024-01-15T22:23:08.072Z,99851.00
2024-01-15T22:25:35.795Z,99861.50
2024-01-15T22:28:05.020Z,99870.19
2024-01-15T22:30:31.925Z,99868.16
2024-01-15T22:32:58.831Z,99873.44
2024-01-15T22:35:30.164Z,99871.72
2024-01-15T22:37:57.097Z,99865.81
2024-01-15T22:40:24.200Z,99871.50
2024-01-15T22:42:51.277Z,99876.22
2024-01-15T22:45:18.513Z,99872.22
2024-01-15T22:47:46.669Z,99877.53
2024-01-15T22:50:15.523Z,99882.75
2024-01-15T22:52:45.100Z,99895.75
2024-01-15T22:55:12.136Z,99889.13
2024-01-15T22:57:39.027Z,99896.16
2024-01-15T23:00:19.554Z,99899.13
2024-01-15T23:02:48.118Z,99900.56
2024-01-15T23:05:18.902Z,99896.50
2024-01-15T23:07:52.012Z,99903.78
2024-01-15T23:10:21.991Z,99897.38
2024-01-15T23:12:57.389Z,99916.09
2024-01-15T23:15:28.345Z,99914.22
2024-01-15T23:17:57.493Z,99917.31
2024-01-15T23:20:28.013Z,99916.09
2024-01-15T23:22:54.872Z,99914.03
2024-01-15T23:25:22.103Z,99917.94
2024-01-15T23:27:51.750Z,99917.69
2024-01-15T23:30:18.896Z,99910.66
2024-01-15T23:32:49.756Z,99915.69
2024-01-15T23:35:17.249Z,99910.75
2024-01-15T23:37:44.258Z,99917.44
2024-01-15T23:40:14.002Z,99921.81
2024-01-15T23:42:40.998Z,99925.53
2024-01-15T23:45:08.618Z,99916.19
2024-01-15T23:47:35.939Z,99917.94
2024-01-15T23:50:04.525Z,99925.78
2024-01-15T23:52:36.615Z,99931.25
2024-01-15T23:55:06.622Z,99934.47
2024-01-15T23:57:33.444Z,99937.28
